createdAt,value
2023-12-14T00:00:56.461Z,93524.00
2023-12-14T00:01:56.495Z,93522.00
2023-12-14T00:02:56.439Z,93528.00
2023-12-14T00:03:56.444Z,93528.00
2023-12-14T00:04:56.481Z,93529.00
2023-12-14T00:05:56.469Z,93531.00
2023-12-14T00:06:56.455Z,93531.00
2023-12-14T00:07:56.510Z,93533.00
2023-12-14T00:08:56.442Z,93534.00
2023-12-14T00:09:56.444Z,93538.00
2023-12-14T00:10:56.480Z,93538.00
2023-12-14T00:11:56.441Z,93537.00
2023-12-14T00:12:56.491Z,93540.00
2023-12-14T00:13:56.526Z,93538.00
2023-12-14T00:14:56.448Z,93540.00
2023-12-14T00:15:56.457Z,93541.00
2023-12-14T00:16:56.490Z,93541.00
2023-12-14T00:17:56.604Z,93541.00
2023-12-14T00:18:56.497Z,93540.00
2023-12-14T00:19:56.469Z,93542.00
2023-12-14T00:20:56.456Z,93542.00
2023-12-14T00:21:56.476Z,93543.00
2023-12-14T00:22:56.478Z,93541.00
2023-12-14T00:23:56.492Z,93542.00
2023-12-14T00:24:56.471Z,93541.00
2023-12-14T00:25:56.513Z,93543.00
2023-12-14T00:26:56.463Z,93542.00
2023-12-14T00:27:56.464Z,93545.00
2023-12-14T00:29:01.481Z,93548.00
2023-12-14T00:29:57.481Z,93548.00
2023-12-14T00:30:56.555Z,93550.00
2023-12-14T00:31:56.499Z,93552.00
2023-12-14T00:32:56.521Z,93554.00
2023-12-14T00:33:56.570Z,93555.00
2023-12-14T00:34:56.521Z,93553.00
2023-12-14T00:35:56.488Z,93555.00
2023-12-14T00:36:56.482Z,93556.00
2023-12-14T00:37:56.565Z,93555.00
2023-12-14T00:38:56.491Z,93556.00
2023-12-14T00:39:56.496Z,93557.00
2023-12-14T00:40:56.512Z,93557.00
2023-12-14T00:41:56.510Z,93558.00
2023-12-14T00:42:56.499Z,93559.00
2023-12-14T00:43:56.519Z,93562.00
2023-12-14T00:44:56.503Z,93564.00
2023-12-14T00:45:56.503Z,93565.00
2023-12-14T00:46:56.625Z,93568.00
2023-12-14T00:47:56.535Z,93567.00
2023-12-14T00:48:56.547Z,93569.00
2023-12-14T00:49:56.539Z,93571.00
2023-12-14T00:50:56.510Z,93571.00
2023-12-14T00:51:56.516Z,93574.00
2023-12-14T00:52:56.528Z,93576.00
2023-12-14T00:53:56.513Z,93577.00
2023-12-14T00:54:56.517Z,93584.00
2023-12-14T00:55:56.563Z,93586.00
2023-12-14T00:56:56.538Z,93587.00
2023-12-14T00:57:56.557Z,93589.00
2023-12-14T00:58:56.803Z,93592.00
2023-12-14T00:59:56.765Z,93597.00
2023-12-14T01:00:56.687Z,93599.00
2023-12-14T01:01:56.733Z,93603.00
2023-12-14T01:02:56.710Z,93605.00
2023-12-14T01:03:56.732Z,93605.00
2023-12-14T01:04:56.788Z,93606.00
2023-12-14T01:05:56.788Z,93607.00
2023-12-14T01:06:56.821Z,93611.00
2023-12-14T01:07:56.867Z,93613.00
2023-12-14T01:08:56.887Z,93619.00
2023-12-14T01:09:56.906Z,93617.00
2023-12-14T01:10:56.940Z,93617.00
2023-12-14T01:11:56.946Z,93616.00
2023-12-14T01:12:56.966Z,93616.00
2023-12-14T01:13:57.009Z,93618.00
2023-12-14T01:14:57.031Z,93617.00
2023-12-14T01:15:57.098Z,93617.00
2023-12-14T01:16:57.116Z,93619.00
2023-12-14T01:17:57.179Z,93618.00
2023-12-14T01:18:57.264Z,93622.00
2023-12-14T01:19:57.197Z,93623.00
2023-12-14T01:20:57.237Z,93624.00
2023-12-14T01:21:57.253Z,93627.00
2023-12-14T01:22:57.286Z,93629.00
2023-12-14T01:23:57.284Z,93631.00
2023-12-14T01:24:57.300Z,93631.00
2023-12-14T01:25:57.427Z,93631.00
2023-12-14T01:26:57.357Z,93633.00
2023-12-14T01:27:57.405Z,93637.00
2023-12-14T01:28:57.455Z,93637.00
2023-12-14T01:29:57.448Z,93638.00
2023-12-14T01:30:57.488Z,93641.00
2023-12-14T01:31:57.537Z,93643.00
2023-12-14T01:32:57.522Z,93643.00
2023-12-14T01:33:57.582Z,93646.00
2023-12-14T01:34:57.609Z,93644.00
2023-12-14T01:35:57.595Z,93646.00
2023-12-14T01:36:57.623Z,93646.00
2023-12-14T01:37:57.733Z,93649.00
2023-12-14T01:38:57.716Z,93653.00
2023-12-14T01:39:57.729Z,93653.00
2023-12-14T01:40:57.811Z,93656.00
2023-12-14T01:41:57.797Z,93658.00
2023-12-14T01:42:57.825Z,93659.00
2023-12-14T01:43:57.888Z,93659.00
2023-12-14T01:44:57.896Z,93662.00
2023-12-14T01:45:57.916Z,93665.00
2023-12-14T01:46:58.005Z,93662.00
2023-12-14T01:47:58.124Z,93664.00
2023-12-14T01:48:58.021Z,93664.00
2023-12-14T01:49:58.065Z,93667.00
2023-12-14T01:50:58.058Z,93666.00
2023-12-14T01:51:58.884Z,93669.00
2023-12-14T01:52:58.156Z,93671.00
2023-12-14T01:53:58.163Z,93672.00
2023-12-14T01:54:58.168Z,93673.00
2023-12-14T01:55:58.263Z,93674.00
2023-12-14T01:56:58.214Z,93671.00
2023-12-14T01:57:58.240Z,93674.00
2023-12-14T01:58:58.299Z,93673.00
2023-12-14T01:59:58.315Z,93673.00
2023-12-14T02:00:58.450Z,93677.00
2023-12-14T02:01:58.473Z,93676.00
2023-12-14T02:02:58.389Z,93679.00
2023-12-14T02:03:58.438Z,93680.00
2023-12-14T02:04:58.523Z,93678.00
2023-12-14T02:05:58.479Z,93681.00
2023-12-14T02:06:58.510Z,93680.00
2023-12-14T02:07:58.524Z,93683.00
2023-12-14T02:08:58.571Z,93683.00
2023-12-14T02:09:58.575Z,93684.00
2023-12-14T02:10:58.642Z,93687.00
2023-12-14T02:11:58.647Z,93690.00
2023-12-14T02:12:58.679Z,93690.00
2023-12-14T02:13:58.768Z,93693.00
2023-12-14T02:14:58.749Z,93692.00
2023-12-14T02:15:58.789Z,93695.00
2023-12-14T02:16:58.853Z,93697.00
2023-12-14T02:17:58.930Z,93697.00
2023-12-14T02:18:58.958Z,93698.00
2023-12-14T02:19:59.009Z,93699.00
2023-12-14T02:20:58.993Z,93700.00
2023-12-14T02:21:59.035Z,93703.00
2023-12-14T02:22:59.112Z,93705.00
2023-12-14T02:23:59.113Z,93705.00
2023-12-14T02:24:59.140Z,93705.00
2023-12-14T02:25:59.210Z,93706.00
2023-12-14T02:27:03.035Z,93707.00
2023-12-14T02:27:59.219Z,93709.00
2023-12-14T02:28:59.266Z,93707.00
2023-12-14T02:29:59.219Z,93711.00
2023-12-14T02:30:59.310Z,93712.00
2023-12-14T02:31:59.287Z,93712.00
2023-12-14T02:32:59.282Z,93714.00
2023-12-14T02:33:59.431Z,93717.00
2023-12-14T02:34:59.277Z,93716.00
2023-12-14T02:35:59.235Z,93719.00
2023-12-14T02:36:59.236Z,93719.00
2023-12-14T02:37:59.282Z,93719.00
2023-12-14T02:38:59.279Z,93718.00
2023-12-14T02:39:59.234Z,93719.00
2023-12-14T02:40:59.278Z,93724.00
2023-12-14T02:41:59.240Z,93723.00
2023-12-14T02:42:59.283Z,93725.00
2023-12-14T02:43:59.380Z,93724.00
2023-12-14T02:44:59.378Z,93724.00
2023-12-14T02:45:59.397Z,93724.00
2023-12-14T02:46:59.472Z,93726.00
2023-12-14T02:47:59.503Z,93728.00
2023-12-14T02:48:59.562Z,93727.00
2023-12-14T02:49:59.580Z,93727.00
2023-12-14T02:50:59.584Z,93729.00
2023-12-14T02:51:59.629Z,93730.00
2023-12-14T02:52:59.758Z,93731.00
2023-12-14T02:53:59.712Z,93730.00
2023-12-14T02:54:59.729Z,93732.00
2023-12-14T02:55:59.779Z,93735.00
2023-12-14T02:56:59.798Z,93734.00
2023-12-14T02:57:59.851Z,93736.00
2023-12-14T02:58:59.936Z,93737.00
2023-12-14T02:59:59.920Z,93738.00
2023-12-14T03:00:59.995Z,93738.00
2023-12-14T03:02:00.047Z,93738.00
2023-12-14T03:03:00.058Z,93737.00
2023-12-14T03:04:00.194Z,93737.00
2023-12-14T03:05:00.253Z,93735.00
2023-12-14T03:06:00.253Z,93734.00
2023-12-14T03:07:00.204Z,93734.00
2023-12-14T03:08:00.329Z,93733.00
2023-12-14T03:09:00.305Z,93734.00
2023-12-14T03:10:00.369Z,93734.00
2023-12-14T03:11:00.410Z,93735.00
2023-12-14T03:12:00.431Z,93737.00
2023-12-14T03:13:00.484Z,93736.00
2023-12-14T03:14:00.564Z,93739.00
2023-12-14T03:15:00.536Z,93739.00
2023-12-14T03:16:00.581Z,93741.00
2023-12-14T03:17:00.688Z,93742.00
2023-12-14T03:18:00.768Z,93745.00
2023-12-14T03:19:00.703Z,93747.00
2023-12-14T03:20:00.795Z,93748.00
2023-12-14T03:21:00.740Z,93751.00
2023-12-14T03:22:00.766Z,93749.00
2023-12-14T03:23:00.841Z,93750.00
2023-12-14T03:24:00.807Z,93753.00
2023-12-14T03:25:00.823Z,93753.00
2023-12-14T03:26:00.884Z,93755.00
2023-12-14T03:27:00.889Z,93755.00
2023-12-14T03:28:00.906Z,93759.00
2023-12-14T03:29:00.947Z,93762.00
2023-12-14T03:30:00.963Z,93762.00
2023-12-14T03:31:01.038Z,93764.00
2023-12-14T03:32:01.093Z,93765.00
2023-12-14T03:33:01.078Z,93765.00
2023-12-14T03:34:01.092Z,93763.00
2023-12-14T03:35:01.094Z,93764.00
2023-12-14T03:36:01.097Z,93764.00
2023-12-14T03:37:01.111Z,93765.00
2023-12-14T03:38:01.150Z,93763.00
2023-12-14T03:39:01.152Z,93766.00
2023-12-14T03:40:01.191Z,93769.00
2023-12-14T03:41:01.216Z,93770.00
2023-12-14T03:42:01.224Z,93771.00
2023-12-14T03:43:01.272Z,93771.00
2023-12-14T03:44:01.306Z,93772.00
2023-12-14T03:45:01.291Z,93774.00
2023-12-14T03:46:01.319Z,93775.00
2023-12-14T03:47:01.430Z,93773.00
2023-12-14T03:48:01.429Z,93773.00
2023-12-14T03:49:01.406Z,93773.00
2023-12-14T03:50:01.449Z,93775.00
2023-12-14T03:51:01.398Z,93778.00
2023-12-14T03:52:01.404Z,93779.00
2023-12-14T03:53:01.499Z,93782.00
2023-12-14T03:54:01.429Z,93782.00
2023-12-14T03:55:01.426Z,93785.00
2023-12-14T03:56:01.456Z,93785.00
2023-12-14T03:57:01.441Z,93787.00
2023-12-14T03:58:01.453Z,93789.00
2023-12-14T03:59:01.544Z,93791.00
2023-12-14T04:00:01.494Z,93794.00
2023-12-14T04:01:01.581Z,93793.00
2023-12-14T04:02:01.637Z,93799.00
2023-12-14T04:03:01.509Z,93799.00
2023-12-14T04:04:01.506Z,93801.00
2023-12-14T04:05:01.630Z,93800.00
2023-12-14T04:06:01.535Z,93803.00
2023-12-14T04:07:01.559Z,93809.00
2023-12-14T04:08:01.657Z,93811.00
2023-12-14T04:09:01.592Z,93814.00
2023-12-14T04:10:01.584Z,93813.00
2023-12-14T04:11:01.624Z,93816.00
2023-12-14T04:12:01.611Z,93821.00
2023-12-14T04:13:01.640Z,93822.00
2023-12-14T04:14:01.822Z,93827.00
2023-12-14T04:15:01.685Z,93829.00
2023-12-14T04:16:01.755Z,93829.00
2023-12-14T04:17:01.864Z,93830.00
2023-12-14T04:18:01.963Z,93830.00
2023-12-14T04:19:01.959Z,93834.00
2023-12-14T04:20:02.046Z,93832.00
2023-12-14T04:21:01.990Z,93836.00
2023-12-14T04:22:02.026Z,93835.00
2023-12-14T04:23:02.083Z,93837.00
2023-12-14T04:24:02.101Z,93836.00
2023-12-14T04:25:02.110Z,93838.00
2023-12-14T04:26:02.216Z,93836.00
2023-12-14T04:27:02.183Z,93837.00
2023-12-14T04:28:02.184Z,93837.00
2023-12-14T04:29:02.279Z,93835.00
2023-12-14T04:30:02.269Z,93837.00
2023-12-14T04:31:02.347Z,93836.00
2023-12-14T04:32:02.384Z,93839.00
2023-12-14T04:33:02.369Z,93839.00
2023-12-14T04:34:02.432Z,93838.00
2023-12-14T04:35:09.719Z,93840.00
2023-12-14T04:36:09.671Z,93838.00
2023-12-14T04:37:09.670Z,93840.00
2023-12-14T04:38:09.833Z,93841.00
2023-12-14T04:39:09.688Z,93842.00
2023-12-14T04:40:09.691Z,93842.00
2023-12-14T04:41:09.731Z,93844.00
2023-12-14T04:42:09.692Z,93844.00
2023-12-14T04:43:09.695Z,93845.00
2023-12-14T04:44:09.746Z,93846.00
2023-12-14T04:45:09.700Z,93849.00
2023-12-14T04:46:09.695Z,93851.00
2023-12-14T04:47:09.839Z,93851.00
2023-12-14T04:48:09.791Z,93854.00
2023-12-14T04:49:09.832Z,93854.00
2023-12-14T04:50:09.763Z,93854.00
2023-12-14T04:51:09.684Z,93855.00
2023-12-14T04:52:09.689Z,93856.00
2023-12-14T04:53:09.724Z,93858.00
2023-12-14T04:54:09.709Z,93860.00
2023-12-14T04:55:09.828Z,93861.00
2023-12-14T04:56:09.760Z,93865.00
2023-12-14T04:57:09.715Z,93863.00
2023-12-14T04:58:09.713Z,93863.00
2023-12-14T04:59:09.717Z,93864.00
2023-12-14T05:00:09.721Z,93869.00
2023-12-14T05:01:09.826Z,93871.00
2023-12-14T05:02:09.880Z,93876.00
2023-12-14T05:03:09.894Z,93879.00
2023-12-14T05:04:10.034Z,93882.00
2023-12-14T05:05:10.038Z,93884.00
2023-12-14T05:06:10.205Z,93887.00
2023-12-14T05:07:10.133Z,93890.00
2023-12-14T05:08:10.289Z,93891.00
2023-12-14T05:09:10.267Z,93893.00
2023-12-14T05:10:10.326Z,93895.00
2023-12-14T05:11:10.402Z,93898.00
2023-12-14T05:12:10.452Z,93899.00
2023-12-14T05:13:10.503Z,93902.00
2023-12-14T05:14:10.575Z,93904.00
2023-12-14T05:15:10.628Z,93906.00
2023-12-14T05:16:10.653Z,93909.00
2023-12-14T05:17:10.831Z,93914.00
2023-12-14T05:18:10.851Z,93917.00
2023-12-14T05:19:10.831Z,93918.00
2023-12-14T05:20:10.940Z,93922.00
2023-12-14T05:21:10.898Z,93922.00
2023-12-14T05:22:10.936Z,93920.00
2023-12-14T05:23:11.045Z,93922.00
2023-12-14T05:24:11.054Z,93923.00
2023-12-14T05:25:11.136Z,93924.00
2023-12-14T05:26:11.231Z,93926.00
2023-12-14T05:27:11.225Z,93931.00
2023-12-14T05:28:11.280Z,93931.00
2023-12-14T05:29:11.413Z,93931.00
2023-12-14T05:30:11.429Z,93933.00
2023-12-14T05:31:11.458Z,93933.00
2023-12-14T05:32:11.583Z,93931.00
2023-12-14T05:33:13.116Z,93931.00
2023-12-14T05:34:11.738Z,93930.00
2023-12-14T05:35:11.742Z,93932.00
2023-12-14T05:36:12.127Z,93933.00
2023-12-14T05:37:11.793Z,93935.00
2023-12-14T05:38:11.920Z,93936.00
2023-12-14T05:39:11.889Z,93938.00
2023-12-14T05:40:11.964Z,93938.00
2023-12-14T05:41:12.139Z,93941.00
2023-12-14T05:42:12.070Z,93943.00
2023-12-14T05:43:12.124Z,93945.00
2023-12-14T05:44:12.273Z,93945.00
2023-12-14T05:45:12.938Z,93946.00
2023-12-14T05:46:12.261Z,93948.00
2023-12-14T05:47:12.412Z,93949.00
2023-12-14T05:48:12.431Z,93950.00
2023-12-14T05:49:12.549Z,93951.00
2023-12-14T05:50:12.518Z,93954.00
2023-12-14T05:51:12.560Z,93956.00
2023-12-14T05:52:12.603Z,93957.00
2023-12-14T05:53:12.700Z,93956.00
2023-12-14T05:54:12.717Z,93958.00
2023-12-14T05:55:12.792Z,93961.00
2023-12-14T05:56:12.930Z,93965.00
2023-12-14T05:57:12.909Z,93966.00
2023-12-14T05:58:13.001Z,93970.00
2023-12-14T05:59:13.103Z,93975.00
2023-12-14T06:00:13.117Z,93976.00
2023-12-14T06:01:13.211Z,93980.00
2023-12-14T06:02:13.298Z,93981.00
2023-12-14T06:03:13.300Z,93985.00
2023-12-14T06:04:13.394Z,93988.00
2023-12-14T06:05:13.549Z,93987.00
2023-12-14T06:06:13.554Z,93989.00
2023-12-14T06:07:13.498Z,93992.00
2023-12-14T06:08:13.647Z,93995.00
2023-12-14T06:09:13.633Z,93998.00
2023-12-14T06:10:13.662Z,94002.00
2023-12-14T06:11:13.781Z,94003.00
2023-12-14T06:12:13.754Z,94006.00
2023-12-14T06:13:13.814Z,94007.00
2023-12-14T06:14:14.000Z,94008.00
2023-12-14T06:15:14.020Z,94009.00
2023-12-14T06:16:14.357Z,94013.00
2023-12-14T06:17:14.101Z,94014.00
2023-12-14T06:18:14.317Z,94015.00
2023-12-14T06:19:14.285Z,94018.00
2023-12-14T06:20:14.420Z,94019.00
2023-12-14T06:21:14.411Z,94022.00
2023-12-14T06:22:15.397Z,94026.00
2023-12-14T06:23:14.508Z,94028.00
2023-12-14T06:24:14.549Z,94027.00
2023-12-14T06:25:14.692Z,94027.00
2023-12-14T06:26:14.949Z,94029.00
2023-12-14T06:27:14.814Z,94030.00
2023-12-14T06:28:14.816Z,94033.00
2023-12-14T06:29:15.085Z,94033.00
2023-12-14T06:30:15.031Z,94034.00
2023-12-14T06:31:15.066Z,94033.00
2023-12-14T06:32:15.138Z,94032.00
2023-12-14T06:33:15.293Z,94032.00
2023-12-14T06:34:15.311Z,94032.00
2023-12-14T06:35:15.374Z,94034.00
2023-12-14T06:36:15.372Z,94035.00
2023-12-14T06:37:15.413Z,94037.00
2023-12-14T06:38:15.570Z,94036.00
2023-12-14T06:39:16.871Z,94038.00
2023-12-14T06:40:15.718Z,94043.00
2023-12-14T06:41:15.804Z,94043.00
2023-12-14T06:42:15.821Z,94045.00
2023-12-14T06:43:15.888Z,94051.00
2023-12-14T06:44:16.173Z,94051.00
2023-12-14T06:45:16.032Z,94056.00
2023-12-14T06:46:16.097Z,94058.00
2023-12-14T06:47:16.207Z,94060.00
2023-12-14T06:48:16.273Z,94062.00
2023-12-14T06:49:16.281Z,94062.00
2023-12-14T06:50:16.414Z,94063.00
2023-12-14T06:51:16.423Z,94065.00
2023-12-14T06:52:16.479Z,94069.00
2023-12-14T06:53:16.544Z,94074.00
2023-12-14T06:54:16.582Z,94075.00
2023-12-14T06:55:16.615Z,94076.00
2023-12-14T06:56:16.814Z,94081.00
2023-12-14T06:57:16.720Z,94083.00
2023-12-14T06:58:16.741Z,94082.00
2023-12-14T06:59:16.975Z,94083.00
2023-12-14T07:00:16.863Z,94085.00
2023-12-14T07:01:16.966Z,94087.00
2023-12-14T07:02:16.988Z,94089.00
2023-12-14T07:03:17.031Z,94091.00
2023-12-14T07:04:17.727Z,94091.00
2023-12-14T07:05:17.121Z,94092.00
2023-12-14T07:06:17.153Z,94091.00
2023-12-14T07:07:17.055Z,94091.00
2023-12-14T07:08:17.195Z,94095.00
2023-12-14T07:09:17.137Z,94097.00
2023-12-14T07:10:17.174Z,94097.00
2023-12-14T07:11:17.306Z,94098.00
2023-12-14T07:12:17.251Z,94099.00
2023-12-14T07:13:17.280Z,94099.00
2023-12-14T07:14:17.350Z,94100.00
2023-12-14T07:15:17.325Z,94099.00
2023-12-14T07:16:17.374Z,94103.00
2023-12-14T07:17:17.441Z,94106.00
2023-12-14T07:18:17.494Z,94108.00
2023-12-14T07:19:17.465Z,94110.00
2023-12-14T07:20:17.569Z,94112.00
2023-12-14T07:21:17.500Z,94111.00
2023-12-14T07:22:17.534Z,94111.00
2023-12-14T07:23:17.628Z,94113.00
2023-12-14T07:24:17.586Z,94114.00
2023-12-14T07:25:17.611Z,94116.00
2023-12-14T07:26:17.682Z,94116.00
2023-12-14T07:27:17.683Z,94115.00
2023-12-14T07:28:17.675Z,94117.00
2023-12-14T07:29:17.912Z,94119.00
2023-12-14T07:30:17.925Z,94122.00
2023-12-14T07:31:17.758Z,94123.00
2023-12-14T07:32:17.833Z,94126.00
2023-12-14T07:33:17.827Z,94129.00
2023-12-14T07:34:17.903Z,94128.00
2023-12-14T07:35:17.870Z,94132.00
2023-12-14T07:36:17.867Z,94130.00
2023-12-14T07:37:17.861Z,94134.00
2023-12-14T07:38:18.014Z,94134.00
2023-12-14T07:39:17.888Z,94133.00
2023-12-14T07:40:17.895Z,94136.00
2023-12-14T07:41:18.078Z,94138.00
2023-12-14T07:42:17.919Z,94144.00
2023-12-14T07:43:17.933Z,94147.00
2023-12-14T07:44:18.412Z,94151.00
2023-12-14T07:45:17.974Z,94156.00
2023-12-14T07:46:18.372Z,94159.00
2023-12-14T07:47:18.095Z,94159.00
2023-12-14T07:48:18.121Z,94162.00
2023-12-14T07:49:17.972Z,94164.00
2023-12-14T07:50:18.049Z,94165.00
2023-12-14T07:51:17.985Z,94167.00
2023-12-14T07:52:18.404Z,94168.00
2023-12-14T07:53:18.097Z,94172.00
2023-12-14T07:54:18.379Z,94174.00
2023-12-14T07:55:18.092Z,94175.00
2023-12-14T07:56:18.155Z,94178.00
2023-12-14T07:57:18.272Z,94177.00
2023-12-14T07:58:18.325Z,94178.00
2023-12-14T07:59:18.529Z,94177.00
2023-12-14T08:00:18.416Z,94180.00
2023-12-14T08:01:18.527Z,94180.00
2023-12-14T08:02:18.628Z,94182.00
2023-12-14T08:03:18.613Z,94183.00
2023-12-14T08:04:18.676Z,94184.00
2023-12-14T08:05:18.825Z,94185.00
2023-12-14T08:06:18.872Z,94186.00
2023-12-14T08:07:18.903Z,94190.00
2023-12-14T08:08:19.007Z,94191.00
2023-12-14T08:09:19.044Z,94193.00
2023-12-14T08:10:19.099Z,94192.00
2023-12-14T08:11:19.195Z,94194.00
2023-12-14T08:12:19.237Z,94198.00
2023-12-14T08:13:19.303Z,94199.00
2023-12-14T08:14:19.386Z,94201.00
2023-12-14T08:15:19.441Z,94202.00
2023-12-14T08:16:19.501Z,94203.00
2023-12-14T08:17:19.631Z,94205.00
2023-12-14T08:18:19.717Z,94207.00
2023-12-14T08:19:19.750Z,94209.00
2023-12-14T08:20:19.831Z,94211.00
2023-12-14T08:21:19.830Z,94214.00
2023-12-14T08:22:19.879Z,94217.00
2023-12-14T08:23:20.078Z,94220.00
2023-12-14T08:24:20.001Z,94224.00
2023-12-14T08:25:20.067Z,94226.00
2023-12-14T08:26:20.203Z,94229.00
2023-12-14T08:27:20.174Z,94230.00
2023-12-14T08:28:20.225Z,94232.00
2023-12-14T08:29:20.317Z,94234.00
2023-12-14T08:30:20.459Z,94235.00
2023-12-14T08:31:20.396Z,94237.00
2023-12-14T08:32:20.504Z,94239.00
2023-12-14T08:33:20.606Z,94235.00
2023-12-14T08:34:20.556Z,94236.00
2023-12-14T08:35:20.962Z,94239.00
2023-12-14T08:36:20.712Z,94241.00
2023-12-14T08:37:20.758Z,94241.00
2023-12-14T08:38:20.920Z,94242.00
2023-12-14T08:39:20.897Z,94243.00
2023-12-14T08:40:20.996Z,94250.00
2023-12-14T08:41:21.081Z,94249.00
2023-12-14T08:42:21.082Z,94250.00
2023-12-14T08:43:21.140Z,94252.00
2023-12-14T08:44:21.308Z,94256.00
2023-12-14T08:45:21.266Z,94261.00
2023-12-14T08:46:21.327Z,94262.00
2023-12-14T08:47:21.408Z,94264.00
2023-12-14T08:48:21.550Z,94265.00
2023-12-14T08:49:21.510Z,94265.00
2023-12-14T08:50:21.565Z,94270.00
2023-12-14T08:51:21.574Z,94272.00
2023-12-14T08:52:21.630Z,94273.00
2023-12-14T08:53:21.746Z,94275.00
2023-12-14T08:54:21.770Z,94277.00
2023-12-14T08:55:21.775Z,94277.00
2023-12-14T08:56:21.969Z,94277.00
2023-12-14T08:57:21.869Z,94278.00
2023-12-14T08:58:21.904Z,94277.00
2023-12-14T08:59:21.995Z,94277.00
2023-12-14T09:00:21.988Z,94279.00
2023-12-14T09:01:22.116Z,94279.00
2023-12-14T09:02:22.183Z,94281.00
2023-12-14T09:03:22.265Z,94283.00
2023-12-14T09:04:22.222Z,94282.00
2023-12-14T09:05:22.364Z,94282.00
2023-12-14T09:06:22.328Z,94284.00
2023-12-14T09:07:22.329Z,94286.00
2023-12-14T09:08:22.387Z,94287.00
2023-12-14T09:09:22.402Z,94292.00
2023-12-14T09:10:22.479Z,94296.00
2023-12-14T09:11:22.552Z,94296.00
2023-12-14T09:12:22.580Z,94299.00
2023-12-14T09:13:22.627Z,94301.00
2023-12-14T09:14:22.713Z,94305.00
2023-12-14T09:15:22.762Z,94308.00
2023-12-14T09:16:22.815Z,94308.00
2023-12-14T09:17:22.960Z,94308.00
2023-12-14T09:18:22.986Z,94306.00
2023-12-14T09:19:23.083Z,94309.00
2023-12-14T09:20:23.130Z,94312.00
2023-12-14T09:21:30.426Z,94315.00
2023-12-14T09:22:24.104Z,94317.00
2023-12-14T09:23:23.156Z,94319.00
2023-12-14T09:24:23.224Z,94319.00
2023-12-14T09:25:23.424Z,94321.00
2023-12-14T09:26:23.463Z,94319.00
2023-12-14T09:27:23.110Z,94321.00
2023-12-14T09:28:23.116Z,94326.00
2023-12-14T09:29:23.159Z,94324.00
2023-12-14T09:30:23.249Z,94328.00
2023-12-14T09:31:23.372Z,94331.00
2023-12-14T09:32:23.386Z,94332.00
2023-12-14T09:33:23.641Z,94334.00
2023-12-14T09:34:23.448Z,94336.00
2023-12-14T09:35:23.567Z,94334.00
2023-12-14T09:36:23.602Z,94336.00
2023-12-14T09:37:23.653Z,94337.00
2023-12-14T09:38:23.761Z,94336.00
2023-12-14T09:39:23.777Z,94336.00
2023-12-14T09:40:23.874Z,94335.00
2023-12-14T09:41:23.956Z,94333.00
2023-12-14T09:42:23.961Z,94334.00
2023-12-14T09:43:23.995Z,94335.00
2023-12-14T09:44:24.098Z,94335.00
2023-12-14T09:45:24.098Z,94336.00
2023-12-14T09:46:24.152Z,94334.00
2023-12-14T09:47:24.234Z,94333.00
2023-12-14T09:48:24.360Z,94333.00
2023-12-14T09:49:24.389Z,94333.00
2023-12-14T09:50:24.535Z,94334.00
2023-12-14T09:51:24.486Z,94335.00
2023-12-14T09:52:24.563Z,94334.00
2023-12-14T09:53:24.734Z,94337.00
2023-12-14T09:54:24.698Z,94337.00
2023-12-14T09:55:24.974Z,94337.00
2023-12-14T09:56:24.854Z,94336.00
2023-12-14T09:57:24.886Z,94339.00
2023-12-14T09:58:24.964Z,94338.00
2023-12-14T09:59:25.045Z,94342.00
2023-12-14T10:00:25.439Z,94343.00
2023-12-14T10:01:25.248Z,94341.00
2023-12-14T10:02:25.338Z,94345.00
2023-12-14T10:03:25.378Z,94343.00
2023-12-14T10:04:25.349Z,94344.00
2023-12-14T10:05:25.477Z,94344.00
2023-12-14T10:06:25.535Z,94346.00
2023-12-14T10:07:25.637Z,94348.00
2023-12-14T10:08:25.676Z,94350.00
2023-12-14T10:09:25.697Z,94353.00
2023-12-14T10:10:25.684Z,94354.00
2023-12-14T10:11:25.863Z,94356.00
2023-12-14T10:12:25.803Z,94356.00
2023-12-14T10:13:25.821Z,94358.00
2023-12-14T10:14:26.135Z,94357.00
2023-12-14T10:15:25.989Z,94357.00
2023-12-14T10:16:25.959Z,94355.00
2023-12-14T10:17:26.092Z,94355.00
2023-12-14T10:18:26.378Z,94352.00
2023-12-14T10:19:26.185Z,94355.00
2023-12-14T10:20:26.220Z,94353.00
2023-12-14T10:21:26.208Z,94352.00
2023-12-14T10:22:26.223Z,94351.00
2023-12-14T10:23:26.266Z,94350.00
2023-12-14T10:24:26.326Z,94349.00
2023-12-14T10:25:26.350Z,94348.00
2023-12-14T10:26:26.399Z,94348.00
2023-12-14T10:27:26.405Z,94347.00
2023-12-14T10:28:26.469Z,94347.00
2023-12-14T10:29:26.480Z,94346.00
2023-12-14T10:30:26.503Z,94346.00
2023-12-14T10:31:26.512Z,94345.00
2023-12-14T10:32:26.705Z,94346.00
2023-12-14T10:33:26.648Z,94347.00
2023-12-14T10:34:26.573Z,94345.00
2023-12-14T10:35:27.046Z,94346.00
2023-12-14T10:36:26.651Z,94344.00
2023-12-14T10:37:26.700Z,94346.00
2023-12-14T10:38:26.820Z,94348.00
2023-12-14T10:39:26.773Z,94349.00
2023-12-14T10:40:26.968Z,94353.00
2023-12-14T10:41:26.979Z,94352.00
2023-12-14T10:42:26.895Z,94354.00
2023-12-14T10:43:45.155Z,94355.00
2023-12-14T10:44:42.566Z,94355.00
2023-12-14T10:45:28.744Z,94355.00
2023-12-14T10:46:26.982Z,94356.00
2023-12-14T10:47:27.167Z,94358.00
2023-12-14T10:48:27.013Z,94360.00
2023-12-14T10:49:27.095Z,94364.00
2023-12-14T10:50:26.998Z,94366.00
2023-12-14T10:51:26.963Z,94368.00
2023-12-14T10:52:26.978Z,94369.00
2023-12-14T10:53:27.008Z,94370.00
2023-12-14T10:54:27.018Z,94372.00
2023-12-14T10:55:27.529Z,94374.00
2023-12-14T10:56:27.099Z,94376.00
2023-12-14T10:57:27.046Z,94378.00
2023-12-14T10:58:27.067Z,94379.00
2023-12-14T10:59:27.071Z,94381.00
2023-12-14T11:00:27.087Z,94380.00
2023-12-14T11:01:27.092Z,94381.00
2023-12-14T11:02:27.091Z,94383.00
2023-12-14T11:03:27.250Z,94381.00
2023-12-14T11:04:27.131Z,94382.00
2023-12-14T11:05:27.313Z,94381.00
2023-12-14T11:06:27.256Z,94383.00
2023-12-14T11:07:27.118Z,94386.00
2023-12-14T11:08:27.159Z,94386.00
2023-12-14T11:09:27.216Z,94386.00
2023-12-14T11:10:27.196Z,94386.00
2023-12-14T11:11:27.215Z,94388.00
2023-12-14T11:12:27.188Z,94390.00
2023-12-14T11:13:27.218Z,94389.00
2023-12-14T11:14:27.232Z,94390.00
2023-12-14T11:15:27.230Z,94392.00
2023-12-14T11:16:27.271Z,94393.00
2023-12-14T11:17:27.354Z,94394.00
2023-12-14T11:18:27.881Z,94393.00
2023-12-14T11:19:27.314Z,94392.00
2023-12-14T11:20:27.387Z,94394.00
2023-12-14T11:21:27.340Z,94395.00
2023-12-14T11:22:27.354Z,94396.00
2023-12-14T11:23:27.434Z,94394.00
2023-12-14T11:24:27.406Z,94394.00
2023-12-14T11:25:36.168Z,94392.00
2023-12-14T11:26:28.453Z,94392.00
2023-12-14T11:27:27.405Z,94394.00
2023-12-14T11:28:28.263Z,94396.00
2023-12-14T11:29:27.419Z,94396.00
2023-12-14T11:30:29.079Z,94399.00
2023-12-14T11:31:27.443Z,94403.00
2023-12-14T11:32:27.542Z,94403.00
2023-12-14T11:33:27.524Z,94401.00
2023-12-14T11:34:27.414Z,94403.00
2023-12-14T11:35:27.545Z,94402.00
2023-12-14T11:36:27.435Z,94406.00
2023-12-14T11:37:27.483Z,94403.00
2023-12-14T11:38:27.508Z,94407.00
2023-12-14T11:39:27.442Z,94408.00
2023-12-14T11:40:27.421Z,94410.00
2023-12-14T11:41:27.483Z,94413.00
2023-12-14T11:42:27.425Z,94413.00
2023-12-14T11:43:27.421Z,94413.00
2023-12-14T11:44:27.619Z,94413.00
2023-12-14T11:45:27.441Z,94413.00